Hot Springs, Montana
Current Conditions -  °F | °C
As of 8:53 PM on Sunday 23 Nov 2014 (Local Time) from KMLP Reporting Station
Haze Haze  
Wind Chill: -9°   Ceiling: 300
Heat Index: -3°   Visibility: 4mi
Dew Point: -5°   Wind: 12mph
Humidity: 88%   Direction: 310°NW
Pressure: 29.94"   Gusts: 26mph
Location:  47.61°N, 114.67°W
Report Text: KMLP 240353Z AUTO 31010G23KT 290V350 4SM BR OVC003 M03/M05 A2994 RMK AO2 SNE52 SLP175 P0000 T10331050
Loading
Personal Weather Stations






























Interactive Weather Map New forecast layout! Learn more

10-Day Weather Forecast

Advertisements
Track Severe Weather on mobile